sensor_id;sensor_type;location;lat;lon;timestamp;pressure;altitude;pressure_sealevel;temperature;humidity
36254;BME280;22291;52.250;21.228;2023-03-04T00:02:11;99936.69;;;-0.54;88.43
36254;BME280;22291;52.250;21.228;2023-03-04T00:04:37;99943.09;;;-0.52;88.66
36254;BME280;22291;52.250;21.228;2023-03-04T00:07:04;99948.12;;;-0.53;88.65
36254;BME280;22291;52.250;21.228;2023-03-04T00:09:30;99949.50;;;-0.51;88.42
36254;BME280;22291;52.250;21.228;2023-03-04T00:11:57;99940.44;;;-0.52;88.28
36254;BME280;22291;52.250;21.228;2023-03-04T00:14:23;99937.54;;;-0.51;88.24
36254;BME280;22291;52.250;21.228;2023-03-04T00:16:49;99937.56;;;-0.48;88.26
36254;BME280;22291;52.250;21.228;2023-03-04T00:19:15;99934.38;;;-0.48;88.22
36254;BME280;22291;52.250;21.228;2023-03-04T00:21:42;99937.03;;;-0.48;88.22
36254;BME280;22291;52.250;21.228;2023-03-04T00:24:08;99937.03;;;-0.48;88.22
36254;BME280;22291;52.250;21.228;2023-03-04T00:26:34;99934.95;;;-0.46;88.17
36254;BME280;22291;52.250;21.228;2023-03-04T00:29:01;99919.01;;;-0.46;88.21
36254;BME280;22291;52.250;21.228;2023-03-04T00:31:27;99928.57;;;-0.45;88.19
36254;BME280;22291;52.250;21.228;2023-03-04T00:33:54;99927.80;;;-0.43;88.18
36254;BME280;22291;52.250;21.228;2023-03-04T00:36:20;99917.17;;;-0.43;88.16
36254;BME280;22291;52.250;21.228;2023-03-04T00:38:46;99913.47;;;-0.42;88.17
36254;BME280;22291;52.250;21.228;2023-03-04T00:41:13;99911.11;;;-0.41;88.08
36254;BME280;22291;52.250;21.228;2023-03-04T00:43:39;99910.33;;;-0.39;88.08
36254;BME280;22291;52.250;21.228;2023-03-04T00:46:06;99913.25;;;-0.38;88.12
36254;BME280;22291;52.250;21.228;2023-03-04T00:48:32;99905.86;;;-0.35;88.19
36254;BME280;22291;52.250;21.228;2023-03-04T00:50:58;99885.92;;;-0.35;88.15
36254;BME280;22291;52.250;21.228;2023-03-04T00:53:25;99911.44;;;-0.34;88.17
36254;BME280;22291;52.250;21.228;2023-03-04T00:55:51;99891.00;;;-0.34;88.10
36254;BME280;22291;52.250;21.228;2023-03-04T00:58:17;99892.59;;;-0.33;88.38
36254;BME280;22291;52.250;21.228;2023-03-04T01:00:43;99883.05;;;-0.31;88.18
36254;BME280;22291;52.250;21.228;2023-03-04T01:03:10;99866.56;;;-0.31;88.20
36254;BME280;22291;52.250;21.228;2023-03-04T01:05:36;99868.14;;;-0.32;88.06
36254;BME280;22291;52.250;21.228;2023-03-04T01:08:03;99864.19;;;-0.30;88.26
36254;BME280;22291;52.250;21.228;2023-03-04T01:10:31;99851.20;;;-0.29;88.04
36254;BME280;22291;52.250;21.228;2023-03-04T01:12:57;99846.92;;;-0.30;88.12
36254;BME280;22291;52.250;21.228;2023-03-04T01:15:24;99851.20;;;-0.29;88.08
36254;BME280;22291;52.250;21.228;2023-03-04T01:17:51;99840.03;;;-0.28;87.98
36254;BME280;22291;52.250;21.228;2023-03-04T01:20:18;99830.19;;;-0.28;88.05
36254;BME280;22291;52.250;21.228;2023-03-04T01:22:45;99816.91;;;-0.28;88.02
36254;BME280;22291;52.250;21.228;2023-03-04T01:25:11;99819.31;;;-0.26;88.00
36254;BME280;22291;52.250;21.228;2023-03-04T01:27:38;99817.98;;;-0.26;87.80
36254;BME280;22291;52.250;21.228;2023-03-04T01:30:06;99807.35;;;-0.26;87.72
36254;BME280;22291;52.250;21.228;2023-03-04T01:32:32;99793.80;;;-0.27;87.74
36254;BME280;22291;52.250;21.228;2023-03-04T01:34:59;99783.97;;;-0.27;87.58
36254;BME280;22291;52.250;21.228;2023-03-04T01:37:25;99775.45;;;-0.26;87.49
36254;BME280;22291;52.250;21.228;2023-03-04T01:39:51;99781.31;;;-0.27;87.31
36254;BME280;22291;52.250;21.228;2023-03-04T01:42:22;99755.77;;;-0.28;87.06
36254;BME280;22291;52.250;21.228;2023-03-04T01:44:51;99756.02;;;-0.29;86.98
36254;BME280;22291;52.250;21.228;2023-03-04T01:47:18;99752.56;;;-0.30;86.96
36254;BME280;22291;52.250;21.228;2023-03-04T01:49:52;99752.28;;;-0.31;86.93
36254;BME280;22291;52.250;21.228;2023-03-04T01:52:18;99753.34;;;-0.32;87.01
36254;BME280;22291;52.250;21.228;2023-03-04T01:54:45;99751.48;;;-0.31;87.17
36254;BME280;22291;52.250;21.228;2023-03-04T01:57:22;99745.12;;;-0.30;87.28
36254;BME280;22291;52.250;21.228;2023-03-04T02:00:16;99753.89;;;-0.30;87.58
36254;BME280;22291;52.250;21.228;2023-03-04T02:02:49;99732.88;;;-0.31;87.73
36254;BME280;22291;52.250;21.228;2023-03-04T02:05:21;99734.20;;;-0.31;87.71
36254;BME280;22291;52.250;21.228;2023-03-04T02:07:49;99738.98;;;-0.33;87.94
36254;BME280;22291;52.250;21.228;2023-03-04T02:10:16;99720.09;;;-0.34;87.84
36254;BME280;22291;52.250;21.228;2023-03-04T02:12:44;99720.63;;;-0.35;87.68
36254;BME280;22291;52.250;21.228;2023-03-04T02:15:11;99721.95;;;-0.35;87.57
36254;BME280;22291;52.250;21.228;2023-03-04T02:17:38;99720.09;;;-0.34;87.60
36254;BME280;22291;52.250;21.228;2023-03-04T02:20:26;99724.36;;;-0.33;87.66
36254;BME280;22291;52.250;21.228;2023-03-04T02:26:16;99710.78;;;-0.34;87.90
36254;BME280;22291;52.250;21.228;2023-03-04T02:28:49;99709.45;;;-0.34;87.87
36254;BME280;22291;52.250;21.228;2023-03-04T02:31:34;99711.31;;;-0.35;87.98
36254;BME280;22291;52.250;21.228;2023-03-04T02:34:05;99711.31;;;-0.35;88.33
36254;BME280;22291;52.250;21.228;2023-03-04T02:36:35;99711.86;;;-0.33;88.21
36254;BME280;22291;52.250;21.228;2023-03-04T02:39:06;99721.45;;;-0.32;88.21
36254;BME280;22291;52.250;21.228;2023-03-04T02:41:35;99719.05;;;-0.31;88.34
36254;BME280;22291;52.250;21.228;2023-03-04T02:44:02;99724.95;;;-0.29;88.22
36254;BME280;22291;52.250;21.228;2023-03-04T02:46:29;99721.75;;;-0.28;88.37
36254;BME280;22291;52.250;21.228;2023-03-04T02:48:55;99713.24;;;-0.28;88.36
36254;BME280;22291;52.250;21.228;2023-03-04T02:51:21;99713.53;;;-0.27;88.29
36254;BME280;22291;52.250;21.228;2023-03-04T02:53:48;99704.48;;;-0.26;88.33
36254;BME280;22291;52.250;21.228;2023-03-04T02:56:14;99703.19;;;-0.23;88.34
36254;BME280;22291;52.250;21.228;2023-03-04T02:58:40;99697.09;;;-0.24;88.95
36254;BME280;22291;52.250;21.228;2023-03-04T03:01:07;99694.93;;;-0.24;88.86
36254;BME280;22291;52.250;21.228;2023-03-04T03:03:34;99702.11;;;-0.25;88.73
36254;BME280;22291;52.250;21.228;2023-03-04T03:06:01;99692.27;;;-0.24;89.13
36254;BME280;22291;52.250;21.228;2023-03-04T03:08:27;99686.16;;;-0.25;88.92
36254;BME280;22291;52.250;21.228;2023-03-04T03:10:54;99678.48;;;-0.24;89.24
36254;BME280;22291;52.250;21.228;2023-03-04T03:13:20;99688.58;;;-0.23;89.13
36254;BME280;22291;52.250;21.228;2023-03-04T03:15:47;99677.16;;;-0.21;89.48
36254;BME280;22291;52.250;21.228;2023-03-04T03:18:14;99683.80;;;-0.21;89.53
36254;BME280;22291;52.250;21.228;2023-03-04T03:20:40;99678.23;;;-0.20;89.46
36254;BME280;22291;52.250;21.228;2023-03-04T03:23:07;99681.18;;;-0.18;89.58
36254;BME280;22291;52.250;21.228;2023-03-04T03:25:33;99682.27;;;-0.17;89.59
36254;BME280;22291;52.250;21.228;2023-03-04T03:27:59;99673.75;;;-0.16;89.78
36254;BME280;22291;52.250;21.228;2023-03-04T03:30:26;99670.55;;;-0.16;89.68
36254;BME280;22291;52.250;21.228;2023-03-04T03:32:53;99666.85;;;-0.15;89.63
36254;BME280;22291;52.250;21.228;2023-03-04T03:35:19;99669.52;;;-0.12;89.62
36254;BME280;22291;52.250;21.228;2023-03-04T03:37:45;99666.89;;;-0.10;89.86
36254;BME280;22291;52.250;21.228;2023-03-04T03:40:14;99666.64;;;-0.08;89.65
36254;BME280;22291;52.250;21.228;2023-03-04T03:42:41;99642.97;;;-0.07;89.77
36254;BME280;22291;52.250;21.228;2023-03-04T03:45:08;99652.82;;;-0.05;89.78
36254;BME280;22291;52.250;21.228;2023-03-04T03:47:35;99653.90;;;-0.04;89.67
36254;BME280;22291;52.250;21.228;2023-03-04T03:50:02;99657.64;;;-0.02;89.80
36254;BME280;22291;52.250;21.228;2023-03-04T03:52:29;99651.02;;;0.01;89.65
36254;BME280;22291;52.250;21.228;2023-03-04T03:54:55;99639.06;;;0.01;89.59
36254;BME280;22291;52.250;21.228;2023-03-04T03:57:23;99640.93;;;0.03;89.57
36254;BME280;22291;52.250;21.228;2023-03-04T03:59:50;99635.36;;;0.04;89.95
36254;BME280;22291;52.250;21.228;2023-03-04T04:02:16;99632.45;;;0.06;89.57
36254;BME280;22291;52.250;21.228;2023-03-04T04:04:42;99636.97;;;0.08;89.48
36254;BME280;22291;52.250;21.228;2023-03-04T04:07:09;99639.67;;;0.10;89.39
36254;BME280;22291;52.250;21.228;2023-03-04T04:09:35;99641.00;;;0.13;89.35
36254;BME280;22291;52.250;21.228;2023-03-04T04:12:04;99631.44;;;0.14;89.45
36254;BME280;22291;52.250;21.228;2023-03-04T04:14:31;99636.76;;;0.17;89.42
36254;BME280;22291;52.250;21.228;2023-03-04T04:16:58;99636.00;;;0.19;89.46
36254;BME280;22291;52.250;21.228;2023-03-04T04:19:25;99625.61;;;0.20;89.39
36254;BME280;22291;52.250;21.228;2023-03-04T04:21:51;99634.67;;;0.22;89.33
36254;BME280;22291;52.250;21.228;2023-03-04T04:24:18;99622.98;;;0.23;89.32
36254;BME280;22291;52.250;21.228;2023-03-04T04:26:45;99630.45;;;0.26;89.25
36254;BME280;22291;52.250;21.228;2023-03-04T04:29:13;99630.71;;;0.27;89.19
36254;BME280;22291;52.250;21.228;2023-03-04T04:31:40;99629.13;;;0.28;89.15
36254;BME280;22291;52.250;21.228;2023-03-04T04:34:06;99630.74;;;0.29;89.15
36254;BME280;22291;52.250;21.228;2023-03-04T04:36:33;99628.08;;;0.32;89.06
36254;BME280;22291;52.250;21.228;2023-03-04T04:39:00;99621.17;;;0.33;89.08
36254;BME280;22291;52.250;21.228;2023-03-04T04:41:34;99625.45;;;0.34;89.01
36254;BME280;22291;52.250;21.228;2023-03-04T04:44:03;99622.79;;;0.34;88.94
36254;BME280;22291;52.250;21.228;2023-03-04T04:46:30;99625.20;;;0.36;88.98
36254;BME280;22291;52.250;21.228;2023-03-04T04:48:56;99621.74;;;0.38;88.86
36254;BME280;22291;52.250;21.228;2023-03-04T04:51:22;99620.16;;;0.40;88.89
36254;BME280;22291;52.250;21.228;2023-03-04T04:53:49;99612.17;;;0.40;88.81
36254;BME280;22291;52.250;21.228;2023-03-04T04:56:18;99614.05;;;0.42;88.75
36254;BME280;22291;52.250;21.228;2023-03-04T04:58:47;99607.14;;;0.43;88.70
36254;BME280;22291;52.250;21.228;2023-03-04T05:01:15;99615.12;;;0.43;88.64
36254;BME280;22291;52.250;21.228;2023-03-04T05:03:42;99602.06;;;0.44;88.59
36254;BME280;22291;52.250;21.228;2023-03-04T05:06:09;99602.35;;;0.45;88.63
36254;BME280;22291;52.250;21.228;2023-03-04T05:08:37;99610.08;;;0.47;88.51
36254;BME280;22291;52.250;21.228;2023-03-04T05:11:05;99608.75;;;0.47;88.46
36254;BME280;22291;52.250;21.228;2023-03-04T05:13:32;99601.30;;;0.49;88.37
36254;BME280;22291;52.250;21.228;2023-03-04T05:16:00;99591.45;;;0.49;88.32
36254;BME280;22291;52.250;21.228;2023-03-04T05:18:27;99592.27;;;0.50;88.26
36254;BME280;22291;52.250;21.228;2023-03-04T05:20:56;99588.53;;;0.51;88.21
36254;BME280;22291;52.250;21.228;2023-03-04T05:23:24;99591.76;;;0.53;88.14
36254;BME280;22291;52.250;21.228;2023-03-04T05:25:53;99590.43;;;0.53;88.09
36254;BME280;22291;52.250;21.228;2023-03-04T05:28:20;99591.75;;;0.55;88.02
36254;BME280;22291;52.250;21.228;2023-03-04T05:30:46;99595.48;;;0.57;88.00
36254;BME280;22291;52.250;21.228;2023-03-04T05:33:15;99587.51;;;0.57;87.92
36254;BME280;22291;52.250;21.228;2023-03-04T05:35:43;99574.98;;;0.58;87.87
36254;BME280;22291;52.250;21.228;2023-03-04T05:38:13;99578.22;;;0.60;87.83
36254;BME280;22291;52.250;21.228;2023-03-04T05:40:41;99577.92;;;0.61;87.79
36254;BME280;22291;52.250;21.228;2023-03-04T05:43:08;99587.78;;;0.61;87.82
36254;BME280;22291;52.250;21.228;2023-03-04T05:45:36;99589.14;;;0.63;87.81
36254;BME280;22291;52.250;21.228;2023-03-04T05:48:03;99576.63;;;0.64;87.79
36254;BME280;22291;52.250;21.228;2023-03-04T05:50:31;99580.90;;;0.65;87.77
36254;BME280;22291;52.250;21.228;2023-03-04T05:52:58;99580.36;;;0.65;87.76
36254;BME280;22291;52.250;21.228;2023-03-04T05:55:25;99580.61;;;0.66;87.79
36254;BME280;22291;52.250;21.228;2023-03-04T05:57:53;99577.44;;;0.67;87.74
36254;BME280;22291;52.250;21.228;2023-03-04T06:00:20;99576.36;;;0.68;87.78
36254;BME280;22291;52.250;21.228;2023-03-04T06:02:46;99565.20;;;0.68;87.81
36254;BME280;22291;52.250;21.228;2023-03-04T06:05:14;99554.55;;;0.68;87.81
36254;BME280;22291;52.250;21.228;2023-03-04T06:07:41;99553.48;;;0.69;87.94
36254;BME280;22291;52.250;21.228;2023-03-04T06:10:12;99542.85;;;0.72;87.81
36254;BME280;22291;52.250;21.228;2023-03-04T06:12:40;99545.77;;;0.73;87.90
36254;BME280;22291;52.250;21.228;2023-03-04T06:15:08;99538.59;;;0.73;87.83
36254;BME280;22291;52.250;21.228;2023-03-04T06:17:37;99544.20;;;0.77;87.76
36254;BME280;22291;52.250;21.228;2023-03-04T06:20:06;99548.72;;;0.79;87.66
36254;BME280;22291;52.250;21.228;2023-03-04T06:22:34;99540.47;;;0.81;87.63
36254;BME280;22291;52.250;21.228;2023-03-04T06:25:00;99536.75;;;0.84;87.56
36254;BME280;22291;52.250;21.228;2023-03-04T06:27:27;99534.09;;;0.84;87.50
36254;BME280;22291;52.250;21.228;2023-03-04T06:29:53;99532.75;;;0.87;87.43
36254;BME280;22291;52.250;21.228;2023-03-04T06:32:20;99528.78;;;0.89;87.25
36254;BME280;22291;52.250;21.228;2023-03-04T06:34:47;99532.52;;;0.91;87.19
36254;BME280;22291;52.250;21.228;2023-03-04T06:37:14;99530.92;;;0.92;87.19
36254;BME280;22291;52.250;21.228;2023-03-04T06:39:40;99531.99;;;0.94;87.08
36254;BME280;22291;52.250;21.228;2023-03-04T06:42:07;99541.30;;;0.97;87.11
36254;BME280;22291;52.250;21.228;2023-03-04T06:44:34;99541.58;;;0.98;87.05
36254;BME280;22291;52.250;21.228;2023-03-04T06:47:01;99539.98;;;0.99;86.97
36254;BME280;22291;52.250;21.228;2023-03-04T06:49:27;99534.41;;;1.01;86.90
36254;BME280;22291;52.250;21.228;2023-03-04T06:51:53;99540.80;;;1.02;86.92
36254;BME280;22291;52.250;21.228;2023-03-04T06:54:20;99534.39;;;1.03;86.94
36254;BME280;22291;52.250;21.228;2023-03-04T06:56:46;99540.25;;;1.05;86.88
36254;BME280;22291;52.250;21.228;2023-03-04T06:59:13;99534.13;;;1.05;86.91
36254;BME280;22291;52.250;21.228;2023-03-04T07:01:41;99549.05;;;1.08;86.71
36254;BME280;22291;52.250;21.228;2023-03-04T07:04:08;99532.81;;;1.07;86.74
36254;BME280;22291;52.250;21.228;2023-03-04T07:06:34;99533.86;;;1.09;86.73
36254;BME280;22291;52.250;21.228;2023-03-04T07:09:00;99527.20;;;1.09;86.60
36254;BME280;22291;52.250;21.228;2023-03-04T07:11:27;99529.60;;;1.10;86.65
36254;BME280;22291;52.250;21.228;2023-03-04T07:13:54;99542.41;;;1.11;86.70
36254;BME280;22291;52.250;21.228;2023-03-04T07:16:21;99543.73;;;1.14;86.69
36254;BME280;22291;52.250;21.228;2023-03-04T07:18:48;99532.02;;;1.15;86.60
36254;BME280;22291;52.250;21.228;2023-03-04T07:21:16;99532.27;;;1.16;86.65
36254;BME280;22291;52.250;21.228;2023-03-04T07:23:43;99537.33;;;1.17;86.58
36254;BME280;22291;52.250;21.228;2023-03-04T07:26:10;99538.41;;;1.19;86.45
36254;BME280;22291;52.250;21.228;2023-03-04T07:28:37;99531.50;;;1.18;86.52
36254;BME280;22291;52.250;21.228;2023-03-04T07:31:24;99530.43;;;1.21;86.53
36254;BME280;22291;52.250;21.228;2023-03-04T07:34:01;99526.96;;;1.23;86.51
36254;BME280;22291;52.250;21.228;2023-03-04T07:36:31;99534.16;;;1.25;86.39
36254;BME280;22291;52.250;21.228;2023-03-04T07:38:58;99533.34;;;1.27;86.40
36254;BME280;22291;52.250;21.228;2023-03-04T07:41:26;99522.42;;;1.29;86.27
36254;BME280;22291;52.250;21.228;2023-03-04T07:43:55;99510.72;;;1.30;86.21
36254;BME280;22291;52.250;21.228;2023-03-04T07:46:23;99525.62;;;1.31;86.17
36254;BME280;22291;52.250;21.228;2023-03-04T07:48:50;99522.69;;;1.33;86.22
36254;BME280;22291;52.250;21.228;2023-03-04T07:51:22;99524.83;;;1.36;85.88
36254;BME280;22291;52.250;21.228;2023-03-04T07:53:53;99538.16;;;1.36;85.79
36254;BME280;22291;52.250;21.228;2023-03-04T07:56:29;99520.30;;;1.34;85.55
36254;BME280;22291;52.250;21.228;2023-03-04T07:59:01;99508.84;;;1.36;85.73
36254;BME280;22291;52.250;21.228;2023-03-04T08:01:35;99506.97;;;1.36;85.80
36254;BME280;22291;52.250;21.228;2023-03-04T08:04:04;99504.05;;;1.40;85.84
36254;BME280;22291;52.250;21.228;2023-03-04T08:06:33;99502.44;;;1.44;85.66
36254;BME280;22291;52.250;21.228;2023-03-04T08:09:04;99511.25;;;1.45;85.20
36254;BME280;22291;52.250;21.228;2023-03-04T08:11:35;99502.17;;;1.46;85.43
36254;BME280;22291;52.250;21.228;2023-03-04T08:14:09;99505.12;;;1.47;85.50
36254;BME280;22291;52.250;21.228;2023-03-04T08:16:37;99501.63;;;1.59;85.08
36254;BME280;22291;52.250;21.228;2023-03-04T08:19:05;99501.63;;;1.59;85.08
36254;BME280;22291;52.250;21.228;2023-03-04T08:21:38;99496.32;;;1.57;85.01
36254;BME280;22291;52.250;21.228;2023-03-04T08:24:09;99496.30;;;1.59;84.83
36254;BME280;22291;52.250;21.228;2023-03-04T08:26:41;99494.42;;;1.65;84.68
36254;BME280;22291;52.250;21.228;2023-03-04T08:29:13;99497.63;;;1.64;84.53
36254;BME280;22291;52.250;21.228;2023-03-04T08:31:46;99502.41;;;1.65;84.54
36254;BME280;22291;52.250;21.228;2023-03-04T08:34:17;99494.43;;;1.67;84.44
36254;BME280;22291;52.250;21.228;2023-03-04T08:36:46;99489.34;;;1.68;84.72
36254;BME280;22291;52.250;21.228;2023-03-04T08:39:15;99496.01;;;1.68;84.25
36254;BME280;22291;52.250;21.228;2023-03-04T08:41:47;99490.67;;;1.68;84.16
36254;BME280;22291;52.250;21.228;2023-03-04T08:44:16;99491.77;;;1.67;83.73
36254;BME280;22291;52.250;21.228;2023-03-04T08:46:44;99492.55;;;1.68;83.77
36254;BME280;22291;52.250;21.228;2023-03-04T08:49:12;99501.62;;;1.70;83.96
36254;BME280;22291;52.250;21.228;2023-03-04T08:51:42;99484.02;;;1.68;83.74
36254;BME280;22291;52.250;21.228;2023-03-04T08:54:10;99488.31;;;1.67;83.67
36254;BME280;22291;52.250;21.228;2023-03-04T08:56:42;99483.22;;;1.68;83.83
36254;BME280;22291;52.250;21.228;2023-03-04T08:59:11;99486.41;;;1.70;83.73
36254;BME280;22291;52.250;21.228;2023-03-04T09:01:40;99496.55;;;1.76;83.80
36254;BME280;22291;52.250;21.228;2023-03-04T09:04:07;99482.41;;;1.78;83.55
36254;BME280;22291;52.250;21.228;2023-03-04T09:06:33;99473.36;;;1.79;83.10
36254;BME280;22291;52.250;21.228;2023-03-04T09:09:06;99489.63;;;1.77;83.23
36254;BME280;22291;52.250;21.228;2023-03-04T09:11:33;99469.36;;;1.79;83.25
36254;BME280;22291;52.250;21.228;2023-03-04T09:13:59;99471.72;;;1.80;83.37
36254;BME280;22291;52.250;21.228;2023-03-04T09:16:26;99471.45;;;1.82;83.10
36254;BME280;22291;52.250;21.228;2023-03-04T09:18:55;99467.44;;;1.87;83.47
36254;BME280;22291;52.250;21.228;2023-03-04T09:21:23;99466.34;;;1.96;83.64
36254;BME280;22291;52.250;21.228;2023-03-04T09:23:54;99461.27;;;2.04;83.40
36254;BME280;22291;52.250;21.228;2023-03-04T09:26:23;99462.02;;;2.13;83.88
36254;BME280;22291;52.250;21.228;2023-03-04T09:28:58;99464.95;;;2.21;83.80
36254;BME280;22291;52.250;21.228;2023-03-04T09:31:29;99455.31;;;2.26;83.25
36254;BME280;22291;52.250;21.228;2023-03-04T09:34:01;99450.48;;;2.28;82.61
36254;BME280;22291;52.250;21.228;2023-03-04T09:36:30;99458.25;;;2.27;82.42
36254;BME280;22291;52.250;21.228;2023-03-04T09:39:05;99446.24;;;2.27;82.74
36254;BME280;22291;52.250;21.228;2023-03-04T09:41:47;99451.83;;;2.30;82.10
36254;BME280;22291;52.250;21.228;2023-03-04T09:44:29;99444.34;;;2.30;82.62
36254;BME280;22291;52.250;21.228;2023-03-04T09:47:14;99447.25;;;2.33;82.19
36254;BME280;22291;52.250;21.228;2023-03-04T09:50:00;99436.61;;;2.31;81.86
36254;BME280;22291;52.250;21.228;2023-03-04T09:55:42;99441.45;;;2.23;82.07
36254;BME280;22291;52.250;21.228;2023-03-04T09:58:41;99448.39;;;2.22;82.26
36254;BME280;22291;52.250;21.228;2023-03-04T10:06:22;99449.72;;;2.19;82.32
36254;BME280;22291;52.250;21.228;2023-03-04T10:12:33;99439.09;;;2.09;82.61
36254;BME280;22291;52.250;21.228;2023-03-04T10:14:31;99424.72;;;2.05;82.53
36254;BME280;22291;52.250;21.228;2023-03-04T10:17:16;99435.92;;;2.02;82.61
36254;BME280;22291;52.250;21.228;2023-03-04T10:22:44;99429.80;;;1.99;83.00
36254;BME280;22291;52.250;21.228;2023-03-04T10:25:26;99416.21;;;1.95;83.12
36254;BME280;22291;52.250;21.228;2023-03-04T10:28:11;99432.49;;;1.96;83.27
36254;BME280;22291;52.250;21.228;2023-03-04T10:33:39;99415.94;;;1.97;83.82
36254;BME280;22291;52.250;21.228;2023-03-04T10:38:44;99423.42;;;1.95;84.10
36254;BME280;22291;52.250;21.228;2023-03-04T10:41:17;99411.15;;;1.94;84.82
36254;BME280;22291;52.250;21.228;2023-03-04T10:46:42;99402.08;;;1.92;84.69
36254;BME280;22291;52.250;21.228;2023-03-04T10:49:19;99402.62;;;1.92;85.06
36254;BME280;22291;52.250;21.228;2023-03-04T10:51:48;99379.98;;;1.89;85.92
36254;BME280;22291;52.250;21.228;2023-03-04T10:54:47;99388.50;;;1.89;85.89
36254;BME280;22291;52.250;21.228;2023-03-04T11:00:28;99389.59;;;1.88;86.82
36254;BME280;22291;52.250;21.228;2023-03-04T11:03:21;99384.50;;;1.89;86.68
36254;BME280;22291;52.250;21.228;2023-03-04T11:07:22;99387.91;;;2.02;87.19
36254;BME280;22291;52.250;21.228;2023-03-04T11:09:52;99405.57;;;1.93;87.28
36254;BME280;22291;52.250;21.228;2023-03-04T11:12:31;99389.31;;;1.89;87.56
36254;BME280;22291;52.250;21.228;2023-03-04T11:15:03;99394.92;;;1.88;87.58
36254;BME280;22291;52.250;21.228;2023-03-04T11:17:42;99389.05;;;1.88;87.67
36254;BME280;22291;52.250;21.228;2023-03-04T11:20:29;99390.92;;;1.88;88.06
36254;BME280;22291;52.250;21.228;2023-03-04T11:26:15;99374.67;;;1.84;89.00
36254;BME280;22291;52.250;21.228;2023-03-04T11:37:43;99375.44;;;1.87;89.16
36254;BME280;22291;52.250;21.228;2023-03-04T11:40:40;99370.10;;;1.87;89.48
36254;BME280;22291;52.250;21.228;2023-03-04T11:43:17;99365.34;;;1.84;89.27
36254;BME280;22291;52.250;21.228;2023-03-04T11:54:33;99359.48;;;1.79;89.69
36254;BME280;22291;52.250;21.228;2023-03-04T12:13:19;99352.25;;;1.88;91.19
36254;BME280;22291;52.250;21.228;2023-03-04T12:24:01;99353.81;;;1.96;91.55
36254;BME280;22291;52.250;21.228;2023-03-04T12:26:53;99340.45;;;1.99;91.83
36254;BME280;22291;52.250;21.228;2023-03-04T12:35:32;99353.75;;;2.07;92.10
36254;BME280;22291;52.250;21.228;2023-03-04T12:44:15;99344.87;;;2.21;92.19
36254;BME280;22291;52.250;21.228;2023-03-04T12:47:10;99350.93;;;2.32;92.64
36254;BME280;22291;52.250;21.228;2023-03-04T12:55:23;99337.50;;;2.79;92.67
36254;BME280;22291;52.250;21.228;2023-03-04T12:57:54;99343.73;;;2.99;92.84
36254;BME280;22291;52.250;21.228;2023-03-04T13:00:46;99166.52;;;2.34;92.35
